Terminal Aerodrome Forecast
Issued by NWS

Current Version | Previous Version | Text Only | Print | Product List | Glossary On
Versions: 1 2 3 4 5 6 7 8 9 10 11 12 13 14 15
000
FTUS42 KRAH 151918 AAA
TAFRWI
TAF AMD
KRWI 151918Z 1519/1618 20010G18KT P6SM -RA SCT015 BKN025
      TEMPO 1520/1522 VRB13G30KT 1SM TSRA BR BKN020CB
     FM152200 30016G30KT P6SM -RA BKN015 OVC025
     FM160200 33015G26KT P6SM BKN020 BKN035 OVC100
     FM160400 35014G20KT P6SM SCT030 BKN060
     FM160600 01012KT P6SM SKC
     FM161400 03014KT P6SM SKC
      AMD NOT SKED=

USA.gov is the U.S. government's official web portal to all federal, state and local government web resources and services.